Time,TemperatureF,DewpointF,PressureIn,WindDirection,WindDirectionDegrees,WindSpeedMPH,WindSpeedGustMPH,Humidity,HourlyPrecipIn,Conditions,Clouds,dailyrainin,SolarRadiationWatts/m^2,SoftwareType,DateUTC
2013-10-20 00:04:00,51.0,38.0,-100.00,South,173,4.0,7.0,61,0.00,,,0.00,0.000000,,2013-10-20 05:04:00,
2013-10-20 00:43:00,51.0,38.0,-100.00,SSE,158,5.0,6.0,61,0.00,,,0.00,0.000000,,2013-10-20 05:43:00,
2013-10-20 00:52:00,51.0,38.0,-100.00,SSE,158,5.0,6.0,61,0.00,,,0.00,0.000000,,2013-10-20 05:52:00,
2013-10-20 01:02:00,51.0,38.0,-100.00,SSE,158,5.0,6.0,61,0.00,,,0.00,0.000000,,2013-10-20 06:02:00,
2013-10-20 01:42:00,47.0,38.0,-100.00,South,181,3.0,6.0,70,0.00,,,0.00,0.000000,,2013-10-20 06:42:00,
2013-10-20 01:52:00,47.0,38.0,-100.00,South,181,3.0,6.0,70,0.00,,,0.00,0.000000,,2013-10-20 06:52:00,
2013-10-20 02:02:00,47.0,38.0,-100.00,South,181,3.0,6.0,70,0.00,,,0.00,0.000000,,2013-10-20 07:02:00,
2013-10-20 02:42:00,47.0,37.0,-100.00,South,186,4.0,5.0,68,0.00,,,0.00,0.000000,,2013-10-20 07:42:00,
2013-10-20 02:52:00,47.0,37.0,-100.00,South,186,4.0,5.0,68,0.00,,,0.00,0.000000,,2013-10-20 07:52:00,
2013-10-20 03:02:00,47.0,37.0,-100.00,South,186,4.0,5.0,68,0.00,,,0.00,0.000000,,2013-10-20 08:02:00,
2013-10-20 03:42:00,46.0,36.0,-100.00,South,171,3.0,5.0,67,0.00,,,0.00,0.000000,,2013-10-20 08:42:00,
2013-10-20 03:52:00,46.0,36.0,-100.00,South,171,3.0,5.0,67,0.00,,,0.00,0.000000,,2013-10-20 08:52:00,
2013-10-20 04:02:00,46.0,36.0,-100.00,South,171,3.0,5.0,67,0.00,,,0.00,0.000000,,2013-10-20 09:02:00,
2013-10-20 04:43:00,42.0,36.0,-100.00,South,171,3.0,4.0,80,0.00,,,0.00,0.000000,,2013-10-20 09:43:00,
2013-10-20 04:53:00,42.0,36.0,-100.00,South,171,3.0,4.0,80,0.00,,,0.00,0.000000,,2013-10-20 09:53:00,
2013-10-20 05:03:00,42.0,36.0,-100.00,South,171,3.0,4.0,80,0.00,,,0.00,0.000000,,2013-10-20 10:03:00,
2013-10-20 05:43:00,44.0,36.0,-100.00,SSE,165,2.0,4.0,72,0.00,,,0.00,0.000000,,2013-10-20 10:43:00,
2013-10-20 05:53:00,44.0,36.0,-100.00,SSE,165,2.0,4.0,72,0.00,,,0.00,0.000000,,2013-10-20 10:53:00,
2013-10-20 06:02:00,44.0,36.0,-100.00,SSE,165,2.0,4.0,72,0.00,,,0.00,0.000000,,2013-10-20 11:02:00,
2013-10-20 06:43:00,47.0,39.0,-100.00,SSE,161,5.0,7.0,74,0.00,,,0.00,0.000000,,2013-10-20 11:43:00,
2013-10-20 06:52:00,47.0,39.0,-100.00,SSE,161,5.0,7.0,74,0.00,,,0.00,0.000000,,2013-10-20 11:52:00,
2013-10-20 07:02:00,47.0,39.0,-100.00,SSE,161,5.0,7.0,74,0.00,,,0.00,0.000000,,2013-10-20 12:02:00,
2013-10-20 07:42:00,48.0,37.0,-100.00,SE,141,4.0,9.0,65,0.00,,,0.00,0.000000,,2013-10-20 12:42:00,
2013-10-20 07:52:00,48.0,37.0,-100.00,SE,141,4.0,9.0,65,0.00,,,0.00,0.000000,,2013-10-20 12:52:00,
2013-10-20 08:01:00,48.0,37.0,-100.00,SE,141,4.0,9.0,65,0.00,,,0.00,0.000000,,2013-10-20 13:01:00,
2013-10-20 08:42:00,49.0,39.0,-100.00,SSE,160,5.0,7.0,68,0.00,,,0.00,8.000000,,2013-10-20 13:42:00,
2013-10-20 08:52:00,49.0,39.0,-100.00,SSE,160,5.0,7.0,68,0.00,,,0.00,8.000000,,2013-10-20 13:52:00,
2013-10-20 09:02:00,49.0,39.0,-100.00,SSE,160,5.0,7.0,68,0.00,,,0.00,8.000000,,2013-10-20 14:02:00,
2013-10-20 09:42:00,54.0,40.0,-100.00,South,171,4.0,9.0,59,0.00,,,0.00,37.000000,,2013-10-20 14:42:00,
2013-10-20 09:52:00,54.0,40.0,-100.00,South,171,4.0,9.0,59,0.00,,,0.00,37.000000,,2013-10-20 14:52:00,
2013-10-20 10:02:00,54.0,40.0,-100.00,South,171,4.0,9.0,59,0.00,,,0.00,37.000000,,2013-10-20 15:02:00,
2013-10-20 10:44:00,59.0,42.0,-100.00,South,171,8.0,15.0,53,0.00,,,0.00,153.000000,,2013-10-20 15:44:00,
2013-10-20 10:54:00,59.0,42.0,-100.00,South,171,8.0,15.0,53,0.00,,,0.00,153.000000,,2013-10-20 15:54:00,
2013-10-20 11:04:00,59.0,42.0,-100.00,South,171,8.0,15.0,53,0.00,,,0.00,153.000000,,2013-10-20 16:04:00,
2013-10-20 11:43:00,63.0,41.0,-100.00,SSE,167,8.0,16.0,44,0.00,,,0.00,550.000000,,2013-10-20 16:43:00,
2013-10-20 11:54:00,63.0,41.0,-100.00,SSE,167,8.0,16.0,44,0.00,,,0.00,550.000000,,2013-10-20 16:54:00,
2013-10-20 12:03:00,63.0,41.0,-100.00,SSE,167,8.0,16.0,44,0.00,,,0.00,550.000000,,2013-10-20 17:03:00,
2013-10-20 12:42:00,66.0,43.0,-100.00,SSE,162,8.0,15.0,44,0.00,,,0.00,589.000000,,2013-10-20 17:42:00,
2013-10-20 12:52:00,66.0,43.0,-100.00,SSE,162,8.0,15.0,44,0.00,,,0.00,589.000000,,2013-10-20 17:52:00,
2013-10-20 13:02:00,66.0,43.0,-100.00,SSE,162,8.0,15.0,44,0.00,,,0.00,589.000000,,2013-10-20 18:02:00,
2013-10-20 13:42:00,67.0,42.0,-100.00,SSE,151,10.0,15.0,40,0.00,,,0.00,761.000000,,2013-10-20 18:42:00,
2013-10-20 13:52:00,67.0,42.0,-100.00,SSE,151,10.0,15.0,40,0.00,,,0.00,761.000000,,2013-10-20 18:52:00,
2013-10-20 14:02:00,67.0,42.0,-100.00,SSE,151,10.0,15.0,40,0.00,,,0.00,761.000000,,2013-10-20 19:02:00,
2013-10-20 14:42:00,70.0,43.0,-100.00,SSE,168,10.0,17.0,37,0.00,,,0.00,845.000000,,2013-10-20 19:42:00,
2013-10-20 14:52:00,70.0,43.0,-100.00,SSE,168,10.0,17.0,37,0.00,,,0.00,845.000000,,2013-10-20 19:52:00,
2013-10-20 15:02:00,70.0,43.0,-100.00,SSE,168,10.0,17.0,37,0.00,,,0.00,845.000000,,2013-10-20 20:02:00,
2013-10-20 15:43:00,71.0,41.0,-100.00,SSE,153,10.0,19.0,34,0.00,,,0.00,780.000000,,2013-10-20 20:43:00,
2013-10-20 15:52:00,71.0,41.0,-100.00,SSE,153,10.0,19.0,34,0.00,,,0.00,780.000000,,2013-10-20 20:52:00,
2013-10-20 16:02:00,71.0,41.0,-100.00,SSE,153,10.0,19.0,34,0.00,,,0.00,780.000000,,2013-10-20 21:02:00,
2013-10-20 16:44:00,72.0,40.0,-100.00,SSE,152,10.0,19.0,31,0.00,,,0.00,651.000000,,2013-10-20 21:44:00,
2013-10-20 16:54:00,72.0,40.0,-100.00,SSE,152,10.0,19.0,31,0.00,,,0.00,651.000000,,2013-10-20 21:54:00,
2013-10-20 17:04:00,72.0,40.0,-100.00,SSE,152,10.0,19.0,31,0.00,,,0.00,651.000000,,2013-10-20 22:04:00,
2013-10-20 17:43:00,72.0,39.0,-100.00,SSE,161,11.0,19.0,30,0.00,,,0.00,468.000000,,2013-10-20 22:43:00,
2013-10-20 17:53:00,72.0,39.0,-100.00,SSE,161,11.0,19.0,30,0.00,,,0.00,468.000000,,2013-10-20 22:53:00,
2013-10-20 18:03:00,72.0,39.0,-100.00,SSE,161,11.0,19.0,30,0.00,,,0.00,468.000000,,2013-10-20 23:03:00,
2013-10-20 18:43:00,70.0,40.0,-100.00,SSE,156,9.0,18.0,34,0.00,,,0.00,252.000000,,2013-10-20 23:43:00,
2013-10-20 18:52:00,70.0,40.0,-100.00,SSE,156,9.0,18.0,34,0.00,,,0.00,252.000000,,2013-10-20 23:52:00,
2013-10-20 19:02:00,70.0,40.0,-100.00,SSE,156,9.0,18.0,34,0.00,,,0.00,252.000000,,2013-10-21 00:02:00,
2013-10-20 19:43:00,65.0,41.0,-100.00,SSE,159,6.0,15.0,41,0.00,,,0.00,38.000000,,2013-10-21 00:43:00,
2013-10-20 19:52:00,65.0,41.0,-100.00,SSE,159,6.0,15.0,41,0.00,,,0.00,38.000000,,2013-10-21 00:52:00,
2013-10-20 20:02:00,65.0,41.0,-100.00,SSE,159,6.0,15.0,41,0.00,,,0.00,38.000000,,2013-10-21 01:02:00,
2013-10-20 20:42:00,61.0,43.0,-100.00,SE,142,5.0,9.0,51,0.00,,,0.00,0.000000,,2013-10-21 01:42:00,
2013-10-20 20:52:00,61.0,43.0,-100.00,SE,142,5.0,9.0,51,0.00,,,0.00,0.000000,,2013-10-21 01:52:00,
2013-10-20 21:02:00,61.0,43.0,-100.00,SE,142,5.0,9.0,51,0.00,,,0.00,0.000000,,2013-10-21 02:02:00,
2013-10-20 21:42:00,59.0,44.0,-100.00,SE,143,5.0,10.0,58,0.00,,,0.00,0.000000,,2013-10-21 02:42:00,
2013-10-20 21:52:00,59.0,44.0,-100.00,SE,143,5.0,10.0,58,0.00,,,0.00,0.000000,,2013-10-21 02:52:00,
2013-10-20 22:03:00,59.0,44.0,-100.00,SE,143,5.0,10.0,58,0.00,,,0.00,0.000000,,2013-10-21 03:03:00,
2013-10-20 22:45:00,61.0,45.0,-100.00,SSE,152,10.0,15.0,56,0.00,,,0.00,0.000000,,2013-10-21 03:45:00,
2013-10-20 22:55:00,61.0,45.0,-100.00,SSE,152,10.0,15.0,56,0.00,,,0.00,0.000000,,2013-10-21 03:55:00,
2013-10-20 23:04:00,61.0,45.0,-100.00,SSE,152,10.0,15.0,56,0.00,,,0.00,0.000000,,2013-10-21 04:04:00,
2013-10-20 23:44:00,63.0,45.0,-100.00,SSE,160,14.0,20.0,51,0.00,,,0.00,0.000000,,2013-10-21 04:44:00,
2013-10-20 23:53:00,63.0,45.0,-100.00,SSE,160,14.0,20.0,51,0.00,,,0.00,0.000000,,2013-10-21 04:53:00,